createdAt,value
2023-03-25T00:01:24.998Z,8.98
2023-03-25T00:03:31.287Z,8.94
2023-03-25T00:05:38.019Z,8.98
2023-03-25T00:07:44.953Z,8.91
2023-03-25T00:09:51.519Z,8.82
2023-03-25T00:11:57.759Z,8.8
2023-03-25T00:14:03.971Z,8.74
2023-03-25T00:16:10.871Z,8.72
2023-03-25T00:18:17.346Z,8.75
2023-03-25T00:20:24.036Z,8.69
2023-03-25T00:22:30.942Z,8.7
2023-03-25T00:24:37.480Z,8.71
2023-03-25T00:26:44.473Z,8.62
2023-03-25T00:28:51.079Z,8.59
2023-03-25T00:30:57.270Z,8.52
2023-03-25T00:33:03.952Z,8.47
2023-03-25T00:35:10.547Z,8.71
2023-03-25T00:37:16.822Z,8.82
2023-03-25T00:39:23.990Z,8.93
2023-03-25T00:41:30.689Z,8.96
2023-03-25T00:43:36.923Z,8.97
2023-03-25T00:45:43.443Z,8.91
2023-03-25T00:47:50.605Z,8.87
2023-03-25T00:49:57.236Z,8.89
2023-03-25T00:52:03.829Z,8.92
2023-03-25T00:54:09.946Z,8.94
2023-03-25T00:56:17.227Z,9.01
2023-03-25T00:58:24.140Z,8.98
2023-03-25T01:00:31.616Z,9
2023-03-25T01:02:38.641Z,9.02
2023-03-25T01:04:45.828Z,8.97
2023-03-25T01:06:52.448Z,8.94
2023-03-25T01:08:59.737Z,8.92
2023-03-25T01:11:05.981Z,8.93
2023-03-25T01:13:13.101Z,8.9
2023-03-25T01:15:20.361Z,8.9
2023-03-25T01:17:26.802Z,8.87
2023-03-25T01:19:34.429Z,8.78
2023-03-25T01:21:41.788Z,8.68
2023-03-25T01:23:48.240Z,8.62
2023-03-25T01:25:55.721Z,8.5
2023-03-25T01:28:02.438Z,8.41
2023-03-25T01:30:09.276Z,8.35
2023-03-25T01:32:16.018Z,8.2
2023-03-25T01:34:22.382Z,8.16
2023-03-25T01:36:29.269Z,8.06
2023-03-25T01:38:36.762Z,7.98
2023-03-25T01:40:44.332Z,7.95
2023-03-25T01:42:51.602Z,7.97
2023-03-25T01:44:59.109Z,7.89
2023-03-25T01:47:05.357Z,7.83
2023-03-25T01:49:12.197Z,7.83
2023-03-25T01:51:19.702Z,7.9
2023-03-25T01:53:26.296Z,7.86
2023-03-25T01:55:33.615Z,7.76
2023-03-25T01:57:39.913Z,7.64
2023-03-25T01:59:46.670Z,7.54
2023-03-25T02:01:53.660Z,7.41
2023-03-25T02:04:00.645Z,7.29
2023-03-25T02:06:08.619Z,7.25
2023-03-25T02:08:15.708Z,7.19
2023-03-25T02:10:22.255Z,7.05
2023-03-25T02:12:29.261Z,6.88
2023-03-25T02:14:35.801Z,6.87
2023-03-25T02:16:42.400Z,6.82
2023-03-25T02:18:49.205Z,6.75
2023-03-25T02:20:56.088Z,6.76
2023-03-25T02:23:02.283Z,6.64
2023-03-25T02:25:08.789Z,6.55
2023-03-25T02:27:15.392Z,6.4
2023-03-25T02:29:21.769Z,6.33
2023-03-25T02:31:28.052Z,6.29
2023-03-25T02:33:34.611Z,6.14
2023-03-25T02:35:41.031Z,6.01
2023-03-25T02:37:47.823Z,5.93
2023-03-25T02:39:54.178Z,5.92
2023-03-25T02:42:00.689Z,5.84
2023-03-25T02:44:06.940Z,5.91
2023-03-25T02:46:13.616Z,5.93
2023-03-25T02:48:19.958Z,5.86
2023-03-25T02:50:27.256Z,5.84
2023-03-25T02:52:33.987Z,5.83
2023-03-25T02:54:40.740Z,5.77
2023-03-25T02:56:47.999Z,5.75
2023-03-25T02:58:54.940Z,5.69
2023-03-25T03:01:01.573Z,5.62
2023-03-25T03:03:08.684Z,5.64
2023-03-25T03:05:15.798Z,5.69
2023-03-25T03:07:21.817Z,5.67
2023-03-25T03:09:28.264Z,5.67
2023-03-25T03:11:34.416Z,5.7
2023-03-25T03:13:41.072Z,5.61
2023-03-25T03:15:47.491Z,5.62
2023-03-25T03:17:55.052Z,5.55
2023-03-25T03:20:02.392Z,5.44
2023-03-25T03:22:08.701Z,5.32
2023-03-25T03:24:15.190Z,5.26
2023-03-25T03:26:22.021Z,5.2
2023-03-25T03:28:28.699Z,5.16
2023-03-25T03:30:35.298Z,5.2
2023-03-25T03:32:42.177Z,5.18
2023-03-25T03:34:48.935Z,5.18
2023-03-25T03:36:56.244Z,5.09
2023-03-25T03:39:02.604Z,4.97
2023-03-25T03:41:08.823Z,4.87
2023-03-25T03:43:15.090Z,4.76
2023-03-25T03:45:21.750Z,4.75
2023-03-25T03:47:28.253Z,4.76
2023-03-25T03:49:34.753Z,4.69
2023-03-25T03:51:40.808Z,4.67
2023-03-25T03:53:47.821Z,4.61
2023-03-25T03:55:54.288Z,4.56
2023-03-25T03:58:00.454Z,4.51
2023-03-25T04:00:07.084Z,4.47
2023-03-25T04:02:13.361Z,4.41
2023-03-25T04:04:20.125Z,4.41
2023-03-25T04:06:26.988Z,4.4
2023-03-25T04:08:33.189Z,4.38
2023-03-25T04:10:39.322Z,4.42
2023-03-25T04:12:45.772Z,4.45
2023-03-25T04:14:52.405Z,4.39
2023-03-25T04:16:58.830Z,4.31
2023-03-25T04:19:05.180Z,4.34
2023-03-25T04:21:11.594Z,4.27
2023-03-25T04:23:18.983Z,4.18
2023-03-25T04:25:25.714Z,4.24
2023-03-25T04:27:32.267Z,4.22
2023-03-25T04:29:39.142Z,4.17
2023-03-25T04:31:46.028Z,4.19
2023-03-25T04:33:53.152Z,4.28
2023-03-25T04:36:00.990Z,4.31
2023-03-25T04:38:07.624Z,4.4
2023-03-25T04:40:15.100Z,4.44
2023-03-25T04:42:21.607Z,4.51
2023-03-25T04:44:28.101Z,4.64
2023-03-25T04:46:34.413Z,4.69
2023-03-25T04:48:40.877Z,4.7
2023-03-25T04:50:47.226Z,4.72
2023-03-25T04:52:53.626Z,4.75
2023-03-25T04:55:00.499Z,4.79
2023-03-25T04:57:06.979Z,4.86
2023-03-25T04:59:13.190Z,4.88
2023-03-25T05:01:19.521Z,4.94
2023-03-25T05:03:26.166Z,4.98
2023-03-25T05:05:32.088Z,5.02
2023-03-25T05:07:38.334Z,5.11
2023-03-25T05:09:44.863Z,5.17
2023-03-25T05:11:50.938Z,5.3
2023-03-25T05:13:57.848Z,5.39
2023-03-25T05:16:04.270Z,5.47
2023-03-25T05:18:10.642Z,5.49
2023-03-25T05:20:16.744Z,5.52
2023-03-25T05:22:23.218Z,5.57
2023-03-25T05:24:29.753Z,5.62
2023-03-25T05:26:36.099Z,5.68
2023-03-25T05:28:43.135Z,5.75
2023-03-25T05:30:49.566Z,5.82
2023-03-25T05:32:56.865Z,5.91
2023-03-25T05:35:03.923Z,6.01
2023-03-25T05:37:10.680Z,6.09
2023-03-25T05:39:17.206Z,6.18
2023-03-25T05:41:23.580Z,6.27
2023-03-25T05:43:30.205Z,6.38
2023-03-25T05:45:36.634Z,6.45
2023-03-25T05:47:43.358Z,6.42
2023-03-25T05:49:49.988Z,6.5
2023-03-25T05:51:56.158Z,6.47
2023-03-25T05:54:02.424Z,6.52
2023-03-25T05:56:08.877Z,6.57
2023-03-25T05:58:15.668Z,6.66
2023-03-25T06:00:23.732Z,6.81
2023-03-25T06:02:31.291Z,6.95
2023-03-25T06:04:38.059Z,7.12
2023-03-25T06:06:44.257Z,7.22
2023-03-25T06:08:51.298Z,7.33
2023-03-25T06:10:58.279Z,7.4
2023-03-25T06:13:05.227Z,7.54
2023-03-25T06:15:11.977Z,7.65
2023-03-25T06:17:19.103Z,7.68
2023-03-25T06:19:26.045Z,7.73
2023-03-25T06:21:32.707Z,7.81
2023-03-25T06:23:38.819Z,7.86
2023-03-25T06:25:45.311Z,7.95
2023-03-25T06:27:52.613Z,7.96
2023-03-25T06:29:58.795Z,7.97
2023-03-25T06:32:05.630Z,8.07
2023-03-25T06:34:12.465Z,8.11
2023-03-25T06:36:19.417Z,8.17
2023-03-25T06:38:26.012Z,8.28
2023-03-25T06:40:33.261Z,8.46
2023-03-25T06:42:39.773Z,8.48
2023-03-25T06:44:46.206Z,8.59
2023-03-25T06:46:52.932Z,8.53
2023-03-25T06:48:59.508Z,8.65
2023-03-25T06:51:06.205Z,8.78
2023-03-25T06:53:13.207Z,8.6
2023-03-25T06:55:21.385Z,8.7
2023-03-25T06:57:28.727Z,8.73
2023-03-25T06:59:36.574Z,8.82
2023-03-25T07:01:44.781Z,8.9
2023-03-25T07:03:52.863Z,9.04
2023-03-25T07:06:00.594Z,9.14
2023-03-25T07:08:08.265Z,9.04
2023-03-25T07:10:16.285Z,9.16
2023-03-25T07:12:25.447Z,9.11
2023-03-25T07:14:33.348Z,9.32
2023-03-25T07:16:41.178Z,9.42
2023-03-25T07:18:48.808Z,9.55
2023-03-25T07:20:55.321Z,9.52
2023-03-25T07:23:01.804Z,9.39
2023-03-25T07:25:09.261Z,9.51
2023-03-25T07:27:18.128Z,9.68
2023-03-25T07:29:25.666Z,9.76
2023-03-25T07:31:32.303Z,9.96
2023-03-25T07:33:40.325Z,9.98
2023-03-25T07:35:48.227Z,9.97
2023-03-25T07:37:56.654Z,9.96
2023-03-25T07:40:03.085Z,9.94
2023-03-25T07:42:10.741Z,9.93
2023-03-25T07:44:18.251Z,10.18
2023-03-25T07:46:25.185Z,10.34
2023-03-25T07:48:32.570Z,10.29
2023-03-25T07:50:39.808Z,10.09
2023-03-25T07:52:46.958Z,10.06
2023-03-25T07:54:54.262Z,10.16
2023-03-25T07:57:02.336Z,10.3
2023-03-25T07:59:09.242Z,10.6
2023-03-25T08:01:16.042Z,10.52
2023-03-25T08:03:22.856Z,10.51
2023-03-25T08:05:29.710Z,10.48
2023-03-25T08:07:36.084Z,10.44
2023-03-25T08:09:42.796Z,10.59
2023-03-25T08:11:49.319Z,10.86
2023-03-25T08:13:55.806Z,11.04
2023-03-25T08:16:03.144Z,11.09
2023-03-25T08:18:10.211Z,10.95
2023-03-25T08:20:17.242Z,10.93
2023-03-25T08:22:25.028Z,10.89
2023-03-25T08:24:31.365Z,10.94
2023-03-25T08:26:37.943Z,11.22
2023-03-25T08:28:44.683Z,11.9
2023-03-25T08:30:53.343Z,12.7
2023-03-25T08:33:01.755Z,13.16
2023-03-25T08:35:09.896Z,12.82
2023-03-25T08:37:18.501Z,12.96
2023-03-25T08:39:25.780Z,13.05
2023-03-25T08:41:33.911Z,13.13
2023-03-25T08:43:43.558Z,13.71
2023-03-25T08:45:52.587Z,13.99
2023-03-25T08:47:59.993Z,13.95
2023-03-25T08:50:07.837Z,14.14
2023-03-25T08:52:15.914Z,14.04
2023-03-25T08:54:23.180Z,14.99
2023-03-25T08:56:30.269Z,14.67
2023-03-25T08:58:37.446Z,14.44
2023-03-25T09:00:43.933Z,15.3
2023-03-25T09:02:50.820Z,16.18
2023-03-25T09:04:58.952Z,15.41
2023-03-25T09:07:10.269Z,14.83
2023-03-25T09:09:21.928Z,14.27
2023-03-25T09:11:36.325Z,14.2
2023-03-25T09:13:44.798Z,14.75
2023-03-25T09:15:53.097Z,14.2
2023-03-25T09:18:01.882Z,14.83
2023-03-25T09:20:10.895Z,14.64
2023-03-25T09:22:19.213Z,15.65
2023-03-25T09:24:26.357Z,16.73
2023-03-25T09:26:33.617Z,16.83
2023-03-25T09:28:40.446Z,16.24
2023-03-25T09:30:47.346Z,15.26
2023-03-25T09:32:54.521Z,14.89
2023-03-25T09:35:01.926Z,14.54
2023-03-25T09:37:09.414Z,14.58
2023-03-25T09:39:17.501Z,14.48
2023-03-25T09:41:25.073Z,14.75
2023-03-25T09:43:35.143Z,15.44
2023-03-25T09:45:42.400Z,15.65
2023-03-25T09:47:52.352Z,14.64
2023-03-25T09:50:01.071Z,14.52
2023-03-25T09:52:07.839Z,14.98
2023-03-25T09:54:14.510Z,14.73
2023-03-25T09:56:22.322Z,13.95
2023-03-25T09:58:29.088Z,14.48
2023-03-25T10:00:35.548Z,15.55
2023-03-25T10:02:42.787Z,16.13
2023-03-25T10:04:50.174Z,16.62
2023-03-25T10:06:56.864Z,15.66
2023-03-25T10:09:03.999Z,14.51
2023-03-25T10:11:10.909Z,14.88
2023-03-25T10:13:19.366Z,14.96
2023-03-25T10:15:26.842Z,14.92
2023-03-25T10:17:33.608Z,14.77
2023-03-25T10:19:41.668Z,14.73
2023-03-25T10:21:49.739Z,14.6
2023-03-25T10:23:56.716Z,14.69
2023-03-25T10:26:03.512Z,15.04
2023-03-25T10:28:13.747Z,15.38
2023-03-25T10:30:23.457Z,16.12
2023-03-25T10:32:31.268Z,16.58
2023-03-25T10:34:39.458Z,17.29
2023-03-25T10:36:45.928Z,17.8
2023-03-25T10:38:52.617Z,18.24
2023-03-25T10:41:00.299Z,17.07
2023-03-25T10:43:08.836Z,17.15
2023-03-25T10:45:16.804Z,17.68
2023-03-25T10:47:23.374Z,17.24
2023-03-25T10:49:30.441Z,16.24
2023-03-25T10:51:37.386Z,16.53
2023-03-25T10:53:44.977Z,16.27
2023-03-25T10:55:52.182Z,15.67
2023-03-25T10:58:00.339Z,15.08
2023-03-25T11:00:08.429Z,15.91
2023-03-25T11:02:16.062Z,16.89
2023-03-25T11:04:22.886Z,16.24
2023-03-25T11:06:29.442Z,15.89
2023-03-25T11:08:36.336Z,15.24
2023-03-25T11:10:43.008Z,15.84
2023-03-25T11:12:49.782Z,16.12
2023-03-25T11:14:58.526Z,15.91
2023-03-25T11:17:08.275Z,16.78
2023-03-25T11:19:15.111Z,16.66
2023-03-25T11:21:23.200Z,16.83
2023-03-25T11:23:31.716Z,16.53
2023-03-25T11:25:39.139Z,16.62
2023-03-25T11:27:46.760Z,16.51
2023-03-25T11:29:52.979Z,16.87
2023-03-25T11:32:00.034Z,17.07
2023-03-25T11:34:08.074Z,15.48
2023-03-25T11:36:15.966Z,15.29
2023-03-25T11:38:24.743Z,15.64
2023-03-25T11:40:31.399Z,15.76
2023-03-25T11:42:39.764Z,15.63
2023-03-25T11:44:46.745Z,15.51
2023-03-25T11:46:53.110Z,15.33
2023-03-25T11:49:00.742Z,15.8
2023-03-25T11:51:09.574Z,16.61
2023-03-25T11:53:16.275Z,17.16
2023-03-25T11:55:23.239Z,16.72
2023-03-25T11:57:31.531Z,16.61
2023-03-25T11:59:41.075Z,16.49
2023-03-25T12:01:49.392Z,16.25
2023-03-25T12:03:57.253Z,15.67
2023-03-25T12:06:04.125Z,15.44
2023-03-25T12:08:13.171Z,15.3
2023-03-25T12:10:20.846Z,15.17
2023-03-25T12:12:29.393Z,14.81
2023-03-25T12:14:37.781Z,14.39
2023-03-25T12:16:46.302Z,14.08
2023-03-25T12:18:54.701Z,12.84
2023-03-25T12:21:03.176Z,11.67
2023-03-25T12:23:09.975Z,11.36
2023-03-25T12:25:19.793Z,11.37
2023-03-25T12:27:27.076Z,11.37
2023-03-25T12:29:34.946Z,11.29
2023-03-25T12:31:42.623Z,11.2
2023-03-25T12:33:51.021Z,11.16
2023-03-25T12:35:58.922Z,11.12
2023-03-25T12:38:08.516Z,11.17
2023-03-25T12:40:19.992Z,11.13
2023-03-25T12:42:27.903Z,11.37
2023-03-25T12:44:34.862Z,11.43
2023-03-25T12:46:41.833Z,11.61
2023-03-25T12:48:49.219Z,11.75
2023-03-25T12:50:57.961Z,11.6
2023-03-25T12:53:06.532Z,11.53
2023-03-25T12:55:15.604Z,11.5
2023-03-25T12:57:24.516Z,11.58
2023-03-25T12:59:33.894Z,11.85
2023-03-25T13:01:43.117Z,12.14
2023-03-25T13:03:55.309Z,12.01
2023-03-25T13:06:03.746Z,12.15
2023-03-25T13:08:11.143Z,12.39
2023-03-25T13:10:18.663Z,12.61
2023-03-25T13:12:25.480Z,12.47
2023-03-25T13:14:33.802Z,12.64
2023-03-25T13:16:41.239Z,12.95
2023-03-25T13:18:49.534Z,13.54
2023-03-25T13:20:58.324Z,13.85
2023-03-25T13:23:16.445Z,12.96
2023-03-25T13:25:24.572Z,12.5
2023-03-25T13:27:32.457Z,12.38
2023-03-25T13:29:40.436Z,12.16
2023-03-25T13:31:48.546Z,12.06
2023-03-25T13:33:57.846Z,12.01
2023-03-25T13:36:06.697Z,11.79
2023-03-25T13:38:14.445Z,11.75
2023-03-25T13:40:23.432Z,11.71
2023-03-25T13:42:31.108Z,11.52
2023-03-25T13:44:39.055Z,11.51
2023-03-25T13:46:47.510Z,11.79
2023-03-25T13:48:55.882Z,12.07
2023-03-25T13:51:03.853Z,12.37
2023-03-25T13:53:12.003Z,12.36
2023-03-25T13:55:21.317Z,12.41
2023-03-25T13:57:28.832Z,12.51
2023-03-25T13:59:35.545Z,12.6
2023-03-25T14:01:45.310Z,12.74
2023-03-25T14:03:53.325Z,12.87
2023-03-25T14:06:02.392Z,12.94
2023-03-25T14:08:10.229Z,13
2023-03-25T14:10:18.933Z,12.94
2023-03-25T14:12:26.946Z,12.94
2023-03-25T14:14:35.109Z,12.8
2023-03-25T14:16:42.210Z,12.99
2023-03-25T14:18:50.250Z,13.08
2023-03-25T14:20:59.102Z,13.07
2023-03-25T14:23:08.412Z,13.09
2023-03-25T14:25:15.049Z,13.03
2023-03-25T14:27:23.556Z,12.89
2023-03-25T14:29:32.176Z,12.9
2023-03-25T14:31:40.292Z,12.91
2023-03-25T14:33:51.388Z,12.78
2023-03-25T14:35:58.551Z,12.78
2023-03-25T14:38:06.706Z,12.94
2023-03-25T14:40:14.619Z,13.05
2023-03-25T14:42:22.067Z,13.33
2023-03-25T14:44:29.556Z,13.39
2023-03-25T14:46:36.958Z,13.29
2023-03-25T14:48:45.712Z,13.33
2023-03-25T14:50:53.721Z,13.25
2023-03-25T14:53:02.168Z,12.99
2023-03-25T14:55:09.691Z,13
2023-03-25T14:57:16.950Z,12.97
2023-03-25T14:59:25.583Z,12.93
2023-03-25T15:01:33.158Z,12.91
2023-03-25T15:03:41.078Z,12.74
2023-03-25T15:05:49.773Z,12.49
2023-03-25T15:08:00.603Z,12.35
2023-03-25T15:10:08.372Z,12.01
2023-03-25T15:12:16.778Z,11.26
2023-03-25T15:14:24.454Z,10.85
2023-03-25T15:16:32.246Z,10.5
2023-03-25T15:18:41.514Z,10.25
2023-03-25T15:20:49.908Z,9.92
2023-03-25T15:22:58.394Z,9.71
2023-03-25T15:25:07.806Z,9.51
2023-03-25T15:27:17.146Z,9.33
2023-03-25T15:29:25.939Z,9.18
2023-03-25T15:31:35.981Z,9.04
2023-03-25T15:33:45.046Z,8.92
2023-03-25T15:35:53.182Z,8.8
2023-03-25T15:38:02.077Z,8.7
2023-03-25T15:40:10.856Z,8.64
2023-03-25T15:42:21.171Z,8.55
2023-03-25T15:44:29.067Z,8.56
2023-03-25T15:46:36.360Z,8.52
2023-03-25T15:48:44.497Z,8.57
2023-03-25T15:50:52.914Z,8.65
2023-03-25T15:53:01.697Z,8.67
2023-03-25T15:55:09.567Z,8.7
2023-03-25T15:57:19.796Z,8.81
2023-03-25T15:59:28.353Z,8.88
2023-03-25T16:01:36.745Z,8.9
2023-03-25T16:03:45.037Z,8.82
2023-03-25T16:05:53.083Z,8.84
2023-03-25T16:08:00.987Z,8.74
2023-03-25T16:10:09.259Z,8.66
2023-03-25T16:12:18.316Z,8.63
2023-03-25T16:14:26.197Z,8.54
2023-03-25T16:16:35.880Z,8.52
2023-03-25T16:18:44.272Z,8.5
2023-03-25T16:20:53.118Z,8.45
2023-03-25T16:23:02.916Z,8.41
2023-03-25T16:25:12.681Z,8.35
2023-03-25T16:27:24.937Z,8.24
2023-03-25T16:29:33.278Z,8.18
2023-03-25T16:31:40.983Z,8.11
2023-03-25T16:33:49.730Z,8.05
2023-03-25T16:35:59.071Z,7.94
2023-03-25T16:38:07.960Z,7.89
2023-03-25T16:40:15.773Z,7.78
2023-03-25T16:42:24.386Z,7.75
2023-03-25T16:44:32.721Z,7.69
2023-03-25T16:46:41.124Z,7.63
2023-03-25T16:48:48.387Z,7.62
2023-03-25T16:50:54.853Z,7.59
2023-03-25T16:53:02.544Z,7.53
2023-03-25T16:55:09.792Z,7.52
2023-03-25T16:57:16.806Z,7.51
2023-03-25T16:59:24.265Z,7.52
2023-03-25T17:01:31.092Z,7.53
2023-03-25T17:03:38.640Z,7.53
2023-03-25T17:05:49.687Z,7.55
2023-03-25T17:07:57.952Z,7.55
2023-03-25T17:10:06.723Z,7.55
2023-03-25T17:12:15.305Z,7.52
2023-03-25T17:14:24.164Z,7.49
2023-03-25T17:16:33.869Z,7.49
2023-03-25T17:18:42.853Z,7.52
2023-03-25T17:20:54.397Z,7.53
2023-03-25T17:23:05.214Z,7.54
2023-03-25T17:25:14.709Z,7.53
2023-03-25T17:27:23.531Z,7.52
2023-03-25T17:29:35.359Z,7.5
2023-03-25T17:31:48.385Z,7.52
2023-03-25T17:33:57.640Z,7.62
2023-03-25T17:36:12.494Z,7.66
2023-03-25T17:38:22.785Z,7.75
2023-03-25T17:40:33.772Z,7.84
2023-03-25T17:42:44.626Z,7.96
2023-03-25T17:44:53.942Z,8.16
2023-03-25T17:47:17.148Z,8.26
2023-03-25T17:49:27.545Z,8.4
2023-03-25T17:51:36.679Z,8.58
2023-03-25T17:53:47.953Z,8.61
2023-03-25T17:55:58.731Z,8.6
2023-03-25T17:58:07.579Z,8.57
2023-03-25T18:00:22.309Z,8.5
2023-03-25T18:02:35.722Z,8.43
2023-03-25T18:04:46.309Z,8.27
2023-03-25T18:06:56.344Z,8.26
2023-03-25T18:09:05.780Z,8.18
2023-03-25T18:11:14.209Z,8.16
2023-03-25T18:13:25.493Z,8.15
2023-03-25T18:17:50.687Z,8.11
2023-03-25T18:20:02.182Z,8.07
2023-03-25T18:22:19.573Z,8.03
2023-03-25T18:24:28.268Z,7.99
2023-03-25T18:26:37.860Z,7.97
2023-03-25T18:28:46.801Z,7.94
2023-03-25T18:30:59.539Z,7.92
2023-03-25T18:33:07.661Z,7.89
2023-03-25T18:35:18.072Z,7.86
2023-03-25T18:37:28.439Z,7.81
2023-03-25T18:39:36.421Z,7.83
2023-03-25T18:41:46.291Z,7.82
2023-03-25T18:43:56.037Z,7.82
2023-03-25T18:46:05.585Z,7.8
2023-03-25T18:48:15.000Z,7.81
2023-03-25T18:50:27.717Z,7.82
2023-03-25T18:52:40.494Z,7.81
2023-03-25T18:55:00.432Z,7.84
2023-03-25T18:57:10.623Z,7.85
2023-03-25T18:59:25.000Z,7.87
2023-03-25T19:01:37.256Z,7.91
2023-03-25T19:03:50.010Z,7.93
2023-03-25T19:06:00.401Z,7.96
2023-03-25T19:08:14.359Z,8.01
2023-03-25T19:10:23.441Z,8.06
2023-03-25T19:12:35.158Z,8.06
2023-03-25T19:15:00.158Z,8.08
2023-03-25T19:17:15.558Z,8.07
2023-03-25T19:19:31.182Z,8.08
2023-03-25T19:21:41.754Z,8.09
2023-03-25T19:23:51.400Z,8.07
2023-03-25T19:26:01.482Z,8.03
2023-03-25T19:28:12.226Z,7.99
2023-03-25T19:30:25.423Z,7.98
2023-03-25T19:32:46.007Z,7.97
2023-03-25T19:34:57.709Z,7.93
2023-03-25T19:37:11.524Z,7.86
2023-03-25T19:39:26.625Z,7.8
2023-03-25T19:41:36.275Z,7.82
2023-03-25T19:43:45.990Z,7.75
2023-03-25T19:45:57.524Z,7.69
2023-03-25T19:48:07.951Z,7.62
2023-03-25T19:50:17.983Z,7.6
2023-03-25T19:52:33.314Z,7.52
2023-03-25T19:54:46.443Z,7.45
2023-03-25T19:56:57.077Z,7.4
2023-03-25T19:59:06.738Z,7.39
2023-03-25T20:01:23.517Z,7.38
2023-03-25T20:03:34.316Z,7.41
2023-03-25T20:05:48.802Z,7.43
2023-03-25T20:08:01.560Z,7.41
2023-03-25T20:10:19.829Z,7.32
2023-03-25T20:12:39.529Z,7.21
2023-03-25T20:14:55.272Z,7.11
2023-03-25T20:17:07.677Z,7.16
2023-03-25T20:19:24.903Z,7.08
2023-03-25T20:21:34.110Z,7.04
2023-03-25T20:23:44.909Z,6.9
2023-03-25T20:25:54.477Z,6.79
2023-03-25T20:28:07.382Z,6.68
2023-03-25T20:30:23.790Z,6.58
2023-03-25T20:32:41.094Z,6.43
2023-03-25T20:34:59.338Z,6.26
2023-03-25T20:37:08.583Z,6.18
2023-03-25T20:39:20.159Z,6.11
2023-03-25T20:41:33.593Z,6.1
2023-03-25T20:43:47.148Z,6.12
2023-03-25T20:45:59.755Z,6.13
2023-03-25T20:48:13.097Z,6.14
2023-03-25T20:50:36.905Z,6.12
2023-03-25T20:52:47.099Z,6.11
2023-03-25T20:54:58.660Z,6.11
2023-03-25T20:57:09.687Z,6.04
2023-03-25T20:59:18.987Z,6.04
2023-03-25T21:01:28.378Z,5.92
2023-03-25T21:03:39.796Z,5.84
2023-03-25T21:05:53.613Z,5.66
2023-03-25T21:08:20.086Z,5.5
2023-03-25T21:10:29.981Z,5.41
2023-03-25T21:12:43.491Z,5.34
2023-03-25T21:14:52.228Z,5.29
2023-03-25T21:17:02.083Z,5.27
2023-03-25T21:19:10.475Z,5.34
2023-03-25T21:21:19.975Z,5.58
2023-03-25T21:23:31.098Z,5.59
2023-03-25T21:25:40.088Z,5.82
2023-03-25T21:27:49.903Z,5.84
2023-03-25T21:29:59.658Z,5.96
2023-03-25T21:32:09.262Z,5.93
2023-03-25T21:34:17.098Z,5.99
2023-03-25T21:36:25.875Z,5.8
2023-03-25T21:38:35.189Z,5.73
2023-03-25T21:40:42.530Z,5.74
2023-03-25T21:42:50.701Z,5.63
2023-03-25T21:44:57.104Z,5.6
2023-03-25T21:47:05.446Z,5.66
2023-03-25T21:49:17.242Z,5.83
2023-03-25T21:51:27.587Z,5.8
2023-03-25T21:53:37.216Z,5.74
2023-03-25T21:55:45.808Z,5.65
2023-03-25T21:57:54.834Z,5.62
2023-03-25T22:00:04.424Z,5.61
2023-03-25T22:02:12.655Z,5.62
2023-03-25T22:04:19.878Z,5.59
2023-03-25T22:06:27.335Z,5.61
2023-03-25T22:08:34.328Z,5.77
2023-03-25T22:10:41.651Z,5.81
2023-03-25T22:12:49.757Z,5.79
2023-03-25T22:14:57.521Z,5.76
2023-03-25T22:17:05.167Z,5.7
2023-03-25T22:19:12.477Z,5.63
2023-03-25T22:21:19.081Z,5.6
2023-03-25T22:23:26.896Z,5.62
2023-03-25T22:25:34.037Z,5.68
2023-03-25T22:27:41.054Z,5.92
2023-03-25T22:29:47.613Z,5.9
2023-03-25T22:31:55.162Z,5.86
2023-03-25T22:34:02.999Z,5.86
2023-03-25T22:36:10.614Z,5.97
2023-03-25T22:38:17.940Z,6.03
2023-03-25T22:40:24.382Z,6.07
2023-03-25T22:42:34.155Z,6.06
2023-03-25T22:44:40.478Z,6.08
2023-03-25T22:46:47.350Z,6.09
2023-03-25T22:48:55.141Z,6.09
2023-03-25T22:51:03.103Z,6.13
2023-03-25T22:53:09.990Z,6.1
2023-03-25T22:55:16.601Z,6.13
2023-03-25T22:57:24.811Z,6.17
2023-03-25T22:59:32.250Z,6.19
2023-03-25T23:01:39.839Z,6.19
2023-03-25T23:03:48.385Z,6.2
2023-03-25T23:05:56.374Z,6.19
2023-03-25T23:08:03.999Z,6.22
2023-03-25T23:10:11.173Z,6.19
2023-03-25T23:12:17.927Z,6.17
2023-03-25T23:14:26.215Z,6.16
2023-03-25T23:16:34.435Z,6.14
2023-03-25T23:18:41.679Z,6.21
2023-03-25T23:20:51.602Z,6.2
2023-03-25T23:22:58.486Z,6.19
2023-03-25T23:25:05.815Z,6.15
2023-03-25T23:27:12.773Z,6.14
2023-03-25T23:29:19.583Z,6.1
2023-03-25T23:31:26.052Z,6.07
2023-03-25T23:33:32.834Z,6.06
2023-03-25T23:35:39.587Z,6.03
2023-03-25T23:37:46.680Z,5.99
2023-03-25T23:39:53.624Z,5.97
2023-03-25T23:42:00.989Z,5.91
2023-03-25T23:44:07.864Z,5.9
2023-03-25T23:46:14.605Z,6.02
2023-03-25T23:48:21.237Z,5.99
2023-03-25T23:50:28.405Z,5.89
2023-03-25T23:52:35.547Z,5.82
2023-03-25T23:54:42.882Z,5.78
2023-03-25T23:56:50.492Z,5.7
2023-03-25T23:58:57.568Z,5.62
